Flight Track Log - Related Links

Times and Time Zones

All times are in EDT time to prevent confusion due to time zone crossing. See the EJM98 flight status page for this flight to view local times or setup timezone preferences in your user account.

Time Position Orientation Groundspeed Altitude Reporting Facility
EDT Latitude Longitude Course Direction KTS MPH feet Rate Location/Type
Mon 02:56:57 PM 39.2333 -76.7333 322° Northwest 241 277 3,500  Level Potomac TRACON
Mon 02:57:57 PM 39.2333 -76.8167 270° West 277 319 7,700 3,200 Climbing Potomac TRACON
Mon 02:58:57 PM 39.2667 -76.9167 293° West 281 323 9,900 2,029 Climbing Potomac TRACON
Mon 03:01:27 PM 39.3386 -77.1775 290° West 341 392 14,800 2,077 Climbing Washington Center
Mon 03:02:00 PM 39.3491 -77.2824 322° Northwest  Level FlightAware Approximate
Mon 03:02:25 PM 39.3744 -77.2992 291° West 354 407 17,100  Level Washington Center
Mon 03:03:25 PM 39.4081 -77.4208 290° West 354 407 20,100 2,727 Climbing Washington Center
Mon 03:04:26 PM 39.4456 -77.5533 290° West 371 427 22,600 2,239 Climbing Washington Center
Mon 03:05:39 PM 39.4872 -77.6861 292° West 392 451 25,100 2,519 Climbing Washington Center
Mon 03:06:37 PM 39.5342 -77.8492 291° West 397 457 28,100 2,571 Climbing Washington Center
Mon 03:07:38 PM 39.5753 -77.9850 291° West 402 463 30,200 1,902 Climbing Washington Center
Mon 03:08:40 PM 39.6264 -78.1492 292° West 410 472 32,000 885 Climbing Cleveland Center
Mon 03:09:40 PM 39.6689 -78.2906 291° West 415 478 32,000 350 Level Cleveland Center
Mon 03:10:40 PM 39.7114 -78.4378 291° West 427 491 32,700 1,150 Climbing Cleveland Center
Mon 03:11:40 PM 39.7556 -78.5822 292° West 427 491 34,300 1,150 Climbing Cleveland Center
Mon 03:12:40 PM 39.7869 -78.7108 288° West 427 491 35,000 850 Climbing Cleveland Center
Mon 03:13:40 PM 39.8289 -78.8556 291° West 427 491 36,000 500 Climbing Cleveland Center
Mon 03:14:40 PM 39.8769 -79.0086 292° West 427 491 36,000  Level Cleveland Center
Mon 03:15:40 PM 39.9164 -79.1511 290° West 427 491 36,000  Level Cleveland Center
Mon 03:16:40 PM 39.9556 -79.2886 290° West 420 483 36,000  Level Cleveland Center
Mon 03:17:40 PM 40.0050 -79.4203 296° West 415 478 36,000  Level Cleveland Center
Mon 03:18:40 PM 40.0728 -79.5494 304° West 415 478 36,000 50 Level Cleveland Center
Mon 03:19:40 PM 40.1386 -79.6761 304° West 420 483 36,100 500 Climbing Cleveland Center
Mon 03:20:40 PM 40.2042 -79.8056 304° West 425 489 37,000 800 Climbing Cleveland Center
Mon 03:21:40 PM 40.2675 -79.9300 304° West 430 495 37,700 500 Climbing Cleveland Center
Mon 03:22:40 PM 40.3222 -80.0467 302° West 430 495 38,000 150 Climbing Cleveland Center
Mon 03:23:40 PM 40.3833 -80.1661 304° West 425 489 38,000  Level Cleveland Center
Mon 03:24:40 PM 40.4461 -80.2803 306° West 402 463 38,000 350 Level Cleveland Center
Mon 03:25:40 PM 40.5361 -80.3728 322° Northwest 395 455 38,700 1,000 Climbing Cleveland Center
Mon 03:26:40 PM 40.6258 -80.4736 320° Northwest 395 455 40,000 650 Climbing Cleveland Center
Mon 03:27:40 PM 40.7072 -80.5775 316° Northwest 395 455 40,000  Level Cleveland Center
Mon 03:28:40 PM 40.7989 -80.6872 318° Northwest 414 476 40,000  Level Cleveland Center
Mon 03:29:40 PM 40.8694 -80.7917 312° West 422 486 40,000  Level Cleveland Center
Mon 03:30:40 PM 40.9275 -80.9211 301° West 422 486 40,000  Level Cleveland Center
Mon 03:31:40 PM 40.9856 -81.0644 298° West 404 465 40,000  Level Cleveland Center
Mon 03:32:40 PM 41.0350 -81.1778 300° West 396 456 40,000  Level Cleveland Center
Mon 03:33:40 PM 41.0906 -81.3078 300° West 396 456 40,000  Level Cleveland Center
Mon 03:34:40 PM 41.1500 -81.4325 302° West 401 461 40,000  Level Cleveland Center
Mon 03:35:40 PM 41.2053 -81.5600 300° West 401 461 40,000  Level Cleveland Center
Mon 03:36:40 PM 41.2625 -81.6936 300° West 406 467 40,000  Level Cleveland Center
Mon 03:37:40 PM 41.3175 -81.8272 299° West 406 467 40,000  Level Cleveland Center
Mon 03:38:40 PM 41.3742 -81.9611 299° West 411 473 40,000  Level Cleveland Center
Mon 03:39:40 PM 41.4369 -82.1119 299° West 422 486 40,000  Level Cleveland Center
Mon 03:40:40 PM 41.4872 -82.2353 299° West 422 486 40,000  Level Cleveland Center
Mon 03:41:40 PM 41.5436 -82.3697 299° West 417 480 40,000  Level Cleveland Center
Mon 03:42:40 PM 41.6000 -82.5019 300° West 417 480 40,000  Level Cleveland Center
Mon 03:43:40 PM 41.6578 -82.6453 298° West 417 480 40,000  Level Cleveland Center
Mon 03:44:40 PM 41.7117 -82.7806 298° West 411 473 40,000  Level Cleveland Center
Mon 03:45:40 PM 41.7672 -82.9161 299° West 411 473 40,000  Level Cleveland Center
Mon 03:46:40 PM 41.8228 -83.0519 299° West 411 473 40,000  Level Cleveland Center
Mon 03:47:40 PM 41.8783 -83.1825 300° West 411 473 40,000  Level Cleveland Center
Mon 03:48:40 PM 41.9356 -83.3242 299° West 422 486 40,000  Level Cleveland Center
Mon 03:49:40 PM 41.9886 -83.4578 298° West 417 480 40,000  Level Cleveland Center
Mon 03:50:40 PM 42.0414 -83.5944 298° West 417 480 40,000  Level Cleveland Center
Mon 03:51:40 PM 42.0903 -83.7144 299° West 417 480 40,000  Level Cleveland Center
Mon 03:52:40 PM 42.1450 -83.8486 299° West 417 480 40,000  Level Cleveland Center
Mon 03:53:40 PM 42.1992 -83.9861 298° West 417 480 40,000  Level Cleveland Center
Mon 03:54:40 PM 42.2536 -84.1181 299° West 417 480 40,000  Level Cleveland Center
Mon 03:56:30 PM 42.3533 -84.3689 298° West 410 472 40,000  Level Chicago Center
Mon 03:57:32 PM 42.4078 -84.5047 299° West 411 473 40,000  Level Chicago Center
Mon 03:58:35 PM 42.4614 -84.6453 297° West 409 471 40,000  Level Chicago Center
Mon 03:59:38 PM 42.5222 -84.8017 298° West 407 468 40,000  Level Chicago Center
Mon 04:00:40 PM 42.5747 -84.9369 298° West 406 467 40,000  Level Chicago Center
Mon 04:01:42 PM 42.6267 -85.0717 298° West 404 465 40,000  Level Chicago Center
Mon 04:02:44 PM 42.6775 -85.2067 297° West 403 464 40,000  Level Chicago Center
Mon 04:03:46 PM 42.7278 -85.3419 297° West 402 463 40,000  Level Chicago Center
Mon 04:04:48 PM 42.7792 -85.4775 297° West 404 465 40,000  Level Chicago Center
Mon 04:05:50 PM 42.8547 -85.6286 304° West 405 466 40,000 -387 Level Chicago Center
Mon 04:06:52 PM 42.9178 -85.7536 305° West 403 464 39,200 -968 Descending Chicago Center
Mon 04:07:54 PM 42.9769 -85.8700 305° West 405 466 38,000 -1,403 Descending Chicago Center
Mon 04:08:56 PM 43.0428 -85.9944 306° West 407 468 36,300 -1,776 Descending Chicago Center
Mon 04:09:59 PM 43.1189 -86.1528 303° West 423 487 34,300 -2,016 Descending Chicago Center
Mon 04:11:01 PM 43.1822 -86.2797 304° West 409 471 32,100 -2,419 Descending Chicago Center
Mon 04:12:03 PM 43.2592 -86.3783 317° Northwest 386 444 29,300 -2,758 Descending Chicago Center
Mon 04:13:05 PM 43.3486 -86.4528 329° Northwest 378 435 26,400 -2,419 Descending Chicago Center
Mon 04:14:07 PM 43.4219 -86.5525 315° West 378 435 24,300 -2,710 Descending Chicago Center
Mon 04:15:09 PM 43.4864 -86.7028 301° West 377 434 20,800 -2,758 Descending Chicago Center
Mon 04:16:11 PM 43.5383 -86.8228 301° West 365 420 18,600 -2,032 Descending Chicago Center
Mon 04:17:13 PM 43.5900 -86.9403 301° West 361 415 16,600 -1,887 Descending Chicago Center
Mon 04:18:15 PM 43.6406 -87.0544 301° West 351 404 14,700 -1,597 Descending Chicago Center
Mon 04:19:17 PM 43.6878 -87.1664 300° West 340 391 13,300 -1,403 Descending Chicago Center
Mon 04:20:19 PM 43.7364 -87.2719 303° West 331 381 11,800 -1,500 Descending Chicago Center
Mon 04:21:21 PM 43.7911 -87.4053 300° West 322 371 10,200 -1,016 Descending Chicago Center
Mon 04:22:23 PM 43.8331 -87.5017 301° West 295 339 9,700 -1,008 Descending Chicago Center
Mon 04:23:26 PM 43.8683 -87.5861 300° West 257 296 8,100 -960 Descending Chicago Center
Mon 04:24:03 PM 43.8928 -87.6425 301° West 257 296 8,100  Level Minneapolis Center
Mon 04:25:05 PM 43.9297 -87.7303 300° West 262 302 8,100 -581 Level Minneapolis Center
Mon 04:26:07 PM 43.9667 -87.8189 300° West 264 304 6,900 -1,548 Descending Minneapolis Center
Mon 04:27:09 PM 44.0042 -87.9056 301° West 264 304 4,900 -1,790 Descending Minneapolis Center
Mon 04:28:11 PM 44.0389 -87.9867 301° West 255 293 3,200 -919 Descending Minneapolis Center
Mon 04:29:13 PM 44.0778 -88.0825 299° West 249 287 3,000 -97 Descending Minneapolis Center
Mon 04:30:15 PM 44.1125 -88.1639 301° West 246 283 3,000 48 Level Minneapolis Center
Mon 04:31:18 PM 44.1356 -88.2522 290° West 245 282 3,100  Climbing Minneapolis Center
Mon 04:32:20 PM 44.1556 -88.3403 288° West 243 280 3,000  Descending Minneapolis Center
Mon 04:33:22 PM 44.1761 -88.4361 287° West 233 268 3,100 -290 Climbing Minneapolis Center
Mon 04:34:24 PM 44.1931 -88.5033 289° West 212 244 2,400 -726 Descending Minneapolis Center
Mon 04:35:26 PM 44.2167 -88.5472 307° West 173 199 1,600 -484 Descending Minneapolis Center
Mon 04:36:28 PM 44.2594 -88.5181 26° Northeast 164 189 1,400 -194 Descending Minneapolis Center

Login

Don't have an account? Register now (free) for customized features, flight alerts, and more!